Castle Rock, Washington
Current Conditions -  °F | °C
As of 3:55 AM on Monday 22 Dec 2014 (Local Time) from KKLS Reporting Station
Overcast Overcast  
Wind Chill: 48°   Ceiling: 3400
Heat Index: 48°   Visibility: 10mi
Dew Point: 45°   Wind: 0mph
Humidity: 87%   Direction: NA
Pressure: 30.29"   Gusts: NA
Location:  46.28°N, 122.91°W
Report Text: KKLS 221155Z 00000KT 10SM BKN034 OVC042 09/07 A3029 RMK AO1 60002 70020 10100 20090 52020
Loading
Personal Weather Stations






























Interactive Weather Map New forecast layout! Learn more

10-Day Weather Forecast

Advertisements
Track Severe Weather on mobile